Wetterdaten: Woche 28.04.14 - 04.05.14 (KW18)
Datum Zeit Temp. A. Feuchte A. Luftdruck Regen Wind Richtung Sonnenschein ET UV Solar Taupunkt Windchill Windben
28.04.2014 00:00 11,3 C 90 % 1007,2 hPa 0,0 l/m 1,1 km/h (0 Bft) S-SW 0,00 h 0,000 mm 0,0 UV-I 0 W/m 9,7 C 11,3 C 2,1 km/h (1 Bft)
28.04.2014 01:00 11,2 C 91 % 1007,2 hPa 0,0 l/m 0,9 km/h (0 Bft) S-SW 0,00 h 0,000 mm 0,0 UV-I 0 W/m 9,7 C 11,2 C 2,6 km/h (1 Bft)
28.04.2014 02:00 11,0 C 91 % 1006,9 hPa 0,0 l/m 0,9 km/h (0 Bft) S 0,00 h 0,000 mm 0,0 UV-I 0 W/m 9,6 C 11,0 C 1,9 km/h (1 Bft)
28.04.2014 03:00 10,6 C 93 % 1006,6 hPa 0,0 l/m 2,3 km/h (1 Bft) S-SW 0,00 h 0,000 mm 0,0 UV-I 0 W/m 9,5 C 10,6 C 4,2 km/h (1 Bft)
28.04.2014 04:00 10,6 C 93 % 1006,6 hPa 0,0 l/m 0,2 km/h (0 Bft) S 0,00 h 0,000 mm 0,0 UV-I 0 W/m 9,5 C 10,6 C 0,7 km/h (0 Bft)
28.04.2014 05:00 10,4 C 94 % 1006,6 hPa 0,0 l/m 1,2 km/h (1 Bft) S-SO 0,00 h 0,000 mm 0,0 UV-I 0 W/m 9,5 C 10,4 C 2,3 km/h (1 Bft)
28.04.2014 06:00 10,2 C 95 % 1007,0 hPa 0,0 l/m 2,5 km/h (1 Bft) S 0,00 h 0,000 mm 0,0 UV-I 8 W/m 9,4 C 10,2 C 4,1 km/h (1 Bft)
28.04.2014 07:00 10,2 C 95 % 1007,2 hPa 0,0 l/m 1,9 km/h (1 Bft) S 0,15 h 0,000 mm 0,0 UV-I 35 W/m 9,4 C 10,2 C 3,4 km/h (1 Bft)
28.04.2014 08:00 10,4 C 95 % 1007,3 hPa 0,0 l/m 2,0 km/h (1 Bft) W-SW 0,67 h 0,025 mm 0,5 UV-I 62 W/m 9,6 C 10,4 C 3,6 km/h (1 Bft)
28.04.2014 09:00 10,8 C 94 % 1007,7 hPa 0,0 l/m 2,5 km/h (1 Bft) S 1,00 h 0,025 mm 0,7 UV-I 102 W/m 9,9 C 10,8 C 4,3 km/h (1 Bft)
28.04.2014 10:00 11,3 C 93 % 1007,9 hPa 0,0 l/m 3,6 km/h (1 Bft) W-SW 1,00 h 0,051 mm 1,0 UV-I 124 W/m 10,1 C 11,3 C 5,9 km/h (2 Bft)
28.04.2014 11:00 12,0 C 91 % 1008,1 hPa 0,0 l/m 3,5 km/h (1 Bft) W-SW 1,00 h 0,051 mm 1,6 UV-I 203 W/m 10,5 C 12,0 C 5,8 km/h (2 Bft)
28.04.2014 12:00 13,2 C 86 % 1008,0 hPa 0,0 l/m 1,5 km/h (1 Bft) S 1,00 h 0,102 mm 2,8 UV-I 344 W/m 10,9 C 13,2 C 3,0 km/h (1 Bft)
28.04.2014 13:00 15,1 C 79 % 1007,9 hPa 0,0 l/m 4,0 km/h (1 Bft) S 1,00 h 0,178 mm 4,3 UV-I 440 W/m 11,3 C 15,0 C 6,6 km/h (2 Bft)
28.04.2014 14:00 16,0 C 74 % 1007,7 hPa 0,0 l/m 5,2 km/h (1 Bft) S 1,00 h 0,279 mm 3,3 UV-I 367 W/m 11,4 C 15,7 C 8,4 km/h (2 Bft)
28.04.2014 15:00 16,2 C 73 % 1007,4 hPa 0,0 l/m 4,8 km/h (1 Bft) S 1,00 h 0,229 mm 2,0 UV-I 276 W/m 11,3 C 16,0 C 7,7 km/h (2 Bft)
28.04.2014 16:00 15,4 C 81 % 1007,4 hPa 0,6 l/m 7,2 km/h (2 Bft) N 1,00 h 0,178 mm 1,2 UV-I 139 W/m 12,2 C 14,7 C 10,9 km/h (2 Bft)
28.04.2014 17:00 14,3 C 87 % 1007,6 hPa 0,0 l/m 1,6 km/h (1 Bft) N 1,00 h 0,102 mm 0,8 UV-I 142 W/m 12,2 C 14,3 C 3,2 km/h (1 Bft)
28.04.2014 18:00 14,3 C 85 % 1008,0 hPa 0,0 l/m 2,0 km/h (1 Bft) NW 0,17 h 0,076 mm 0,0 UV-I 44 W/m 11,9 C 14,3 C 4,1 km/h (1 Bft)
28.04.2014 19:00 13,7 C 87 % 1008,4 hPa 0,0 l/m 3,1 km/h (1 Bft) N 0,00 h 0,025 mm 0,0 UV-I 17 W/m 11,6 C 13,6 C 5,6 km/h (1 Bft)
28.04.2014 20:00 12,3 C 88 % 1009,0 hPa 0,0 l/m 2,5 km/h (1 Bft) SO 0,00 h 0,025 mm 0,0 UV-I 8 W/m 10,5 C 12,3 C 4,3 km/h (1 Bft)
28.04.2014 21:00 11,8 C 90 % 1009,7 hPa 0,0 l/m 0,3 km/h (0 Bft) S 0,00 h 0,000 mm 0,0 UV-I 0 W/m 10,2 C 11,8 C 1,0 km/h (0 Bft)
28.04.2014 22:00 11,3 C 93 % 1009,9 hPa 0,0 l/m 0,2 km/h (0 Bft) N-NO 0,00 h 0,000 mm 0,0 UV-I 0 W/m 10,2 C 11,3 C 0,7 km/h (0 Bft)
28.04.2014 23:00 10,7 C 95 % 1010,0 hPa 0,0 l/m 0,0 km/h (0 Bft) N 0,00 h 0,000 mm 0,0 UV-I 0 W/m 9,9 C 10,7 C 0,2 km/h (0 Bft)
29.04.2014 00:00 10,4 C 95 % 1010,2 hPa 0,0 l/m 0,0 km/h (0 Bft) NO 0,00 h 0,000 mm 0,0 UV-I 0 W/m 9,7 C 10,4 C 0,4 km/h (0 Bft)
29.04.2014 01:00 10,3 C 96 % 1010,2 hPa 0,0 l/m 0,0 km/h (0 Bft) N-NO 0,00 h 0,000 mm 0,0 UV-I 0 W/m 9,6 C 10,3 C 0,3 km/h (0 Bft)
29.04.2014 02:00 9,8 C 96 % 1010,1 hPa 0,0 l/m 0,3 km/h (0 Bft) SO 0,00 h 0,000 mm 0,0 UV-I 0 W/m 9,1 C 9,8 C 0,9 km/h (0 Bft)
29.04.2014 03:00 9,1 C 96 % 1010,0 hPa 0,2 l/m 0,3 km/h (0 Bft) N-NO 0,00 h 0,000 mm 0,0 UV-I 0 W/m 8,4 C 9,1 C 0,7 km/h (0 Bft)
29.04.2014 04:00 8,1 C 96 % 1010,0 hPa 0,0 l/m 0,4 km/h (0 Bft) N-NO 0,00 h 0,000 mm 0,0 UV-I 0 W/m 7,5 C 8,1 C 0,8 km/h (0 Bft)
29.04.2014 05:00 7,3 C 97 % 1010,1 hPa 0,0 l/m 0,0 km/h (0 Bft) N 0,00 h 0,000 mm 0,0 UV-I 0 W/m 6,8 C 7,3 C 0,0 km/h (0 Bft)
29.04.2014 06:00 7,9 C 97 % 1010,2 hPa 0,0 l/m 0,3 km/h (0 Bft) N 0,00 h 0,000 mm 0,0 UV-I 18 W/m 7,5 C 7,9 C 0,7 km/h (0 Bft)
29.04.2014 07:00 8,8 C 97 % 1010,5 hPa 0,0 l/m 1,9 km/h (1 Bft) NO 0,25 h 0,000 mm 0,0 UV-I 45 W/m 8,4 C 8,8 C 3,8 km/h (1 Bft)
29.04.2014 08:00 9,5 C 98 % 1010,8 hPa 0,0 l/m 1,3 km/h (1 Bft) N 0,87 h 0,025 mm 0,5 UV-I 77 W/m 9,2 C 9,6 C 2,7 km/h (1 Bft)
29.04.2014 09:00 10,6 C 96 % 1011,1 hPa 0,0 l/m 3,5 km/h (1 Bft) N 1,00 h 0,025 mm 0,9 UV-I 138 W/m 10,0 C 10,6 C 6,0 km/h (2 Bft)
29.04.2014 10:00 13,1 C 85 % 1011,1 hPa 0,0 l/m 2,3 km/h (1 Bft) N 1,00 h 0,076 mm 2,4 UV-I 461 W/m 10,7 C 13,1 C 4,7 km/h (1 Bft)
29.04.2014 11:00 14,6 C 77 % 1011,0 hPa 0,0 l/m 2,5 km/h (1 Bft) S 1,00 h 0,230 mm 2,8 UV-I 383 W/m 10,7 C 14,6 C 4,5 km/h (1 Bft)
29.04.2014 12:00 15,7 C 72 % 1010,7 hPa 0,0 l/m 4,3 km/h (1 Bft) S-SO 1,00 h 0,229 mm 3,8 UV-I 444 W/m 10,6 C 15,6 C 7,0 km/h (2 Bft)
29.04.2014 13:00 18,5 C 61 % 1010,4 hPa 0,0 l/m 5,4 km/h (1 Bft) N-NO 1,00 h 0,279 mm 5,1 UV-I 794 W/m 10,8 C 18,1 C 9,0 km/h (2 Bft)
29.04.2014 14:00 19,7 C 56 % 1010,0 hPa 0,0 l/m 5,8 km/h (2 Bft) NO 1,00 h 0,457 mm 4,6 UV-I 828 W/m 10,7 C 19,3 C 9,5 km/h (2 Bft)
29.04.2014 15:00 19,9 C 52 % 1009,4 hPa 0,0 l/m 6,3 km/h (2 Bft) N-NW 1,00 h 0,508 mm 3,9 UV-I 756 W/m 9,9 C 19,6 C 9,8 km/h (2 Bft)
29.04.2014 16:00 19,0 C 55 % 1009,0 hPa 0,0 l/m 6,1 km/h (2 Bft) NW 1,00 h 0,483 mm 1,5 UV-I 344 W/m 9,7 C 18,5 C 9,9 km/h (2 Bft)
29.04.2014 17:00 14,9 C 79 % 1009,1 hPa 0,0 l/m 10,1 km/h (2 Bft) S 1,00 h 0,229 mm 0,6 UV-I 68 W/m 11,4 C 13,1 C 14,8 km/h (3 Bft)
29.04.2014 18:00 14,4 C 84 % 1009,1 hPa 0,0 l/m 3,7 km/h (1 Bft) S 0,87 h 0,051 mm 0,0 UV-I 75 W/m 11,7 C 14,2 C 6,3 km/h (2 Bft)
29.04.2014 19:00 13,8 C 86 % 1009,1 hPa 0,0 l/m 3,0 km/h (1 Bft) S 0,00 h 0,051 mm 0,0 UV-I 35 W/m 11,5 C 13,8 C 4,6 km/h (1 Bft)
29.04.2014 20:00 13,4 C 90 % 1009,3 hPa 0,2 l/m 3,2 km/h (1 Bft) SO 0,00 h 0,025 mm 0,0 UV-I 10 W/m 11,7 C 13,4 C 5,2 km/h (1 Bft)
29.04.2014 21:00 12,9 C 92 % 1009,7 hPa 0,2 l/m 0,9 km/h (0 Bft) SO 0,00 h 0,000 mm 0,0 UV-I 0 W/m 11,6 C 12,9 C 2,0 km/h (1 Bft)
29.04.2014 22:00 12,5 C 92 % 1009,9 hPa 0,0 l/m 1,6 km/h (1 Bft) O 0,00 h 0,000 mm 0,0 UV-I 0 W/m 11,2 C 12,5 C 3,4 km/h (1 Bft)
29.04.2014 23:00 12,3 C 93 % 1009,9 hPa 0,0 l/m 1,9 km/h (1 Bft) S 0,00 h 0,000 mm 0,0 UV-I 0 W/m 11,2 C 12,3 C 3,3 km/h (1 Bft)
30.04.2014 00:00 12,1 C 93 % 1009,8 hPa 0,0 l/m 0,7 km/h (0 Bft) S 0,00 h 0,000 mm 0,0 UV-I 0 W/m 11,0 C 12,1 C 1,5 km/h (1 Bft)
30.04.2014 01:00 11,8 C 94 % 1009,6 hPa 0,0 l/m 0,0 km/h (0 Bft) N 0,00 h 0,000 mm 0,0 UV-I 0 W/m 10,8 C 11,8 C 0,0 km/h (0 Bft)
30.04.2014 02:00 11,5 C 95 % 1009,2 hPa 0,0 l/m 0,8 km/h (0 Bft) N-NO 0,00 h 0,000 mm 0,0 UV-I 0 W/m 10,7 C 11,5 C 1,5 km/h (1 Bft)
30.04.2014 03:00 10,9 C 96 % 1009,2 hPa 0,0 l/m 0,2 km/h (0 Bft) O-NO 0,00 h 0,000 mm 0,0 UV-I 0 W/m 10,2 C 10,9 C 0,7 km/h (0 Bft)
30.04.2014 04:00 10,2 C 96 % 1008,8 hPa 0,0 l/m 0,0 km/h (0 Bft) O-NO 0,00 h 0,000 mm 0,0 UV-I 0 W/m 9,5 C 10,2 C 0,3 km/h (0 Bft)
30.04.2014 05:00 9,6 C 96 % 1008,6 hPa 0,0 l/m 0,1 km/h (0 Bft) S-SO 0,00 h 0,000 mm 0,0 UV-I 5 W/m 9,0 C 9,6 C 0,5 km/h (0 Bft)
30.04.2014 06:00 9,3 C 97 % 1008,7 hPa 0,0 l/m 0,5 km/h (0 Bft) NW 0,00 h 0,000 mm 0,0 UV-I 20 W/m 8,9 C 9,3 C 1,5 km/h (1 Bft)
30.04.2014 07:00 9,0 C 97 % 1008,8 hPa 0,0 l/m 0,6 km/h (0 Bft) O-NO 0,85 h 0,000 mm 0,5 UV-I 83 W/m 8,5 C 9,0 C 1,7 km/h (1 Bft)
30.04.2014 08:00 10,2 C 97 % 1008,8 hPa 0,0 l/m 2,1 km/h (1 Bft) W-NW 1,00 h 0,025 mm 0,9 UV-I 260 W/m 9,8 C 10,2 C 3,4 km/h (1 Bft)
30.04.2014 09:00 13,8 C 88 % 1008,7 hPa 0,0 l/m 1,7 km/h (1 Bft) W-NW 1,00 h 0,127 mm 1,8 UV-I 524 W/m 11,8 C 13,8 C 3,7 km/h (1 Bft)
30.04.2014 10:00 16,8 C 70 % 1008,7 hPa 0,0 l/m 4,7 km/h (1 Bft) SO 1,00 h 0,279 mm 3,2 UV-I 717 W/m 11,3 C 16,5 C 8,6 km/h (2 Bft)
30.04.2014 11:00 17,3 C 55 % 1008,8 hPa 0,0 l/m 6,6 km/h (2 Bft) SO 1,00 h 0,381 mm 3,2 UV-I 479 W/m 8,3 C 16,8 C 11,5 km/h (2 Bft)
30.04.2014 12:00 18,1 C 51 % 1008,7 hPa 0,0 l/m 4,9 km/h (1 Bft) SO 1,00 h 0,330 mm 3,6 UV-I 464 W/m 7,8 C 17,9 C 8,4 km/h (2 Bft)
30.04.2014 13:00 19,0 C 49 % 1008,4 hPa 0,0 l/m 7,9 km/h (2 Bft) SO 1,00 h 0,330 mm 5,0 UV-I 780 W/m 8,2 C 18,2 C 13,3 km/h (3 Bft)
30.04.2014 14:00 20,2 C 41 % 1008,0 hPa 0,0 l/m 6,4 km/h (2 Bft) O-SO 1,00 h 0,508 mm 4,3 UV-I 765 W/m 6,6 C 19,8 C 11,3 km/h (2 Bft)
30.04.2014 15:00 20,4 C 40 % 1007,7 hPa 0,0 l/m 5,7 km/h (1 Bft) O 1,00 h 0,483 mm 3,2 UV-I 606 W/m 6,3 C 20,1 C 10,1 km/h (2 Bft)
30.04.2014 16:00 18,7 C 42 % 1007,3 hPa 0,0 l/m 2,8 km/h (1 Bft) O 1,00 h 0,406 mm 1,4 UV-I 174 W/m 5,6 C 18,7 C 5,8 km/h (2 Bft)
30.04.2014 17:00 19,3 C 42 % 1007,1 hPa 0,0 l/m 4,9 km/h (1 Bft) O-NO 1,00 h 0,127 mm 1,1 UV-I 278 W/m 5,9 C 19,0 C 8,9 km/h (2 Bft)
30.04.2014 18:00 18,3 C 43 % 1007,0 hPa 0,0 l/m 3,6 km/h (1 Bft) SO 0,92 h 0,203 mm 0,6 UV-I 82 W/m 5,5 C 18,3 C 6,6 km/h (2 Bft)
30.04.2014 19:00 16,6 C 50 % 1007,2 hPa 0,0 l/m 0,7 km/h (0 Bft) O-NO 0,00 h 0,076 mm 0,0 UV-I 28 W/m 6,0 C 16,6 C 2,1 km/h (1 Bft)
30.04.2014 20:00 15,6 C 56 % 1007,6 hPa 0,0 l/m 1,3 km/h (1 Bft) O 0,00 h 0,025 mm 0,0 UV-I 11 W/m 6,8 C 15,6 C 3,0 km/h (1 Bft)
30.04.2014 21:00 13,8 C 66 % 1008,3 hPa 0,0 l/m 0,2 km/h (0 Bft) O 0,00 h 0,025 mm 0,0 UV-I 0 W/m 7,6 C 13,8 C 1,0 km/h (0 Bft)
30.04.2014 22:00 12,1 C 74 % 1008,8 hPa 0,0 l/m 0,6 km/h (0 Bft) O-NO 0,00 h 0,025 mm 0,0 UV-I 0 W/m 7,6 C 12,1 C 1,1 km/h (1 Bft)
30.04.2014 23:00 11,0 C 80 % 1009,3 hPa 0,0 l/m 0,1 km/h (0 Bft) W-NW 0,00 h 0,025 mm 0,0 UV-I 0 W/m 7,8 C 11,0 C 0,5 km/h (0 Bft)
01.05.2014 00:00 9,9 C 85 % 1009,5 hPa 0,0 l/m 0,2 km/h (0 Bft) O-NO 0,00 h 0,025 mm 0,0 UV-I 0 W/m 7,4 C 9,9 C 0,7 km/h (0 Bft)
01.05.2014 01:00 9,3 C 86 % 1009,4 hPa 0,0 l/m 0,0 km/h (0 Bft) N 0,00 h 0,000 mm 0,0 UV-I 0 W/m 7,1 C 9,3 C 0,1 km/h (0 Bft)
01.05.2014 02:00 8,7 C 89 % 1009,3 hPa 0,0 l/m 0,7 km/h (0 Bft) N 0,00 h 0,000 mm 0,0 UV-I 0 W/m 7,0 C 8,7 C 1,8 km/h (1 Bft)
01.05.2014 03:00 8,4 C 90 % 1009,4 hPa 0,0 l/m 0,8 km/h (0 Bft) O 0,00 h 0,000 mm 0,0 UV-I 0 W/m 6,9 C 8,4 C 1,7 km/h (1 Bft)
01.05.2014 04:00 8,1 C 90 % 1009,4 hPa 0,0 l/m 0,2 km/h (0 Bft) NO 0,00 h 0,000 mm 0,0 UV-I 0 W/m 6,5 C 8,1 C 0,9 km/h (0 Bft)
01.05.2014 05:00 8,2 C 91 % 1009,4 hPa 0,0 l/m 1,8 km/h (1 Bft) O-SO 0,00 h 0,000 mm 0,0 UV-I 7 W/m 6,8 C 8,2 C 3,1 km/h (1 Bft)
01.05.2014 06:00 8,9 C 92 % 1009,6 hPa 0,2 l/m 1,0 km/h (0 Bft) O 0,00 h 0,000 mm 0,0 UV-I 15 W/m 7,6 C 8,9 C 2,3 km/h (1 Bft)
01.05.2014 07:00 9,3 C 95 % 1009,9 hPa 0,6 l/m 1,5 km/h (1 Bft) O-NO 0,00 h 0,000 mm 0,0 UV-I 20 W/m 8,6 C 9,4 C 2,7 km/h (1 Bft)
01.05.2014 08:00 9,9 C 96 % 1010,1 hPa 0,0 l/m 0,7 km/h (0 Bft) N 0,55 h 0,000 mm 0,5 UV-I 55 W/m 9,3 C 9,9 C 1,5 km/h (1 Bft)
01.05.2014 09:00 11,2 C 94 % 1010,5 hPa 0,0 l/m 4,6 km/h (1 Bft) S 1,00 h 0,025 mm 1,2 UV-I 177 W/m 10,2 C 10,9 C 7,2 km/h (2 Bft)
01.05.2014 10:00 12,5 C 89 % 1010,8 hPa 0,0 l/m 4,9 km/h (1 Bft) S 1,00 h 0,076 mm 1,9 UV-I 289 W/m 10,7 C 12,4 C 7,9 km/h (2 Bft)
01.05.2014 11:00 14,5 C 81 % 1010,7 hPa 0,0 l/m 3,7 km/h (1 Bft) S 1,00 h 0,152 mm 3,4 UV-I 466 W/m 11,2 C 14,5 C 6,3 km/h (2 Bft)
01.05.2014 12:00 14,7 C 78 % 1010,5 hPa 0,0 l/m 10,0 km/h (2 Bft) W 1,00 h 0,254 mm 2,6 UV-I 262 W/m 10,9 C 12,8 C 15,3 km/h (3 Bft)
01.05.2014 13:00 16,3 C 69 % 1010,3 hPa 0,0 l/m 9,7 km/h (2 Bft) W 1,00 h 0,152 mm 4,8 UV-I 651 W/m 10,5 C 14,8 C 14,7 km/h (3 Bft)
01.05.2014 14:00 16,2 C 68 % 1009,9 hPa 0,0 l/m 9,3 km/h (2 Bft) W-SW 1,00 h 0,381 mm 3,2 UV-I 343 W/m 10,3 C 14,8 C 14,1 km/h (3 Bft)
01.05.2014 15:00 16,9 C 64 % 1009,6 hPa 0,0 l/m 8,7 km/h (2 Bft) W-SW 1,00 h 0,229 mm 3,1 UV-I 436 W/m 9,9 C 15,7 C 14,0 km/h (3 Bft)
01.05.2014 16:00 17,4 C 58 % 1009,0 hPa 0,0 l/m 7,5 km/h (2 Bft) W-NW 1,00 h 0,279 mm 2,6 UV-I 481 W/m 9,0 C 16,6 C 11,8 km/h (2 Bft)
01.05.2014 17:00 16,8 C 58 % 1008,7 hPa 0,0 l/m 3,8 km/h (1 Bft) S 1,00 h 0,305 mm 1,3 UV-I 177 W/m 8,5 C 16,8 C 6,2 km/h (2 Bft)
01.05.2014 18:00 16,0 C 61 % 1008,3 hPa 0,0 l/m 0,6 km/h (0 Bft) S-SW 0,53 h 0,127 mm 0,7 UV-I 48 W/m 8,5 C 16,0 C 1,6 km/h (1 Bft)
01.05.2014 19:00 14,5 C 68 % 1008,6 hPa 0,0 l/m 5,8 km/h (2 Bft) N-NW 0,00 h 0,025 mm 0,0 UV-I 9 W/m 8,7 C 13,4 C 9,0 km/h (2 Bft)
01.05.2014 20:00 11,7 C 85 % 1009,0 hPa 0,6 l/m 3,5 km/h (1 Bft) N 0,00 h 0,025 mm 0,0 UV-I 6 W/m 9,2 C 11,7 C 5,8 km/h (1 Bft)
01.05.2014 21:00 10,1 C 91 % 1009,5 hPa 0,0 l/m 0,7 km/h (0 Bft) N 0,00 h 0,000 mm 0,0 UV-I 0 W/m 8,7 C 10,1 C 1,4 km/h (1 Bft)
01.05.2014 22:00 9,1 C 94 % 1009,6 hPa 0,0 l/m 0,5 km/h (0 Bft) O-SO 0,00 h 0,000 mm 0,0 UV-I 0 W/m 8,2 C 9,1 C 1,1 km/h (1 Bft)
01.05.2014 23:00 8,4 C 94 % 1009,4 hPa 0,0 l/m 0,4 km/h (0 Bft) N 0,00 h 0,000 mm 0,0 UV-I 0 W/m 7,6 C 8,4 C 1,0 km/h (0 Bft)
02.05.2014 00:00 7,8 C 95 % 1009,7 hPa 0,0 l/m 0,1 km/h (0 Bft) N 0,00 h 0,000 mm 0,0 UV-I 0 W/m 7,1 C 7,8 C 0,4 km/h (0 Bft)
02.05.2014 01:00 7,7 C 95 % 1009,5 hPa 0,0 l/m 0,3 km/h (0 Bft) N 0,00 h 0,000 mm 0,0 UV-I 0 W/m 7,0 C 7,7 C 1,0 km/h (0 Bft)
02.05.2014 02:00 7,7 C 95 % 1009,2 hPa 0,0 l/m 0,2 km/h (0 Bft) N 0,00 h 0,000 mm 0,0 UV-I 0 W/m 7,0 C 7,7 C 1,0 km/h (0 Bft)
02.05.2014 03:00 7,3 C 95 % 1008,8 hPa 0,0 l/m 0,3 km/h (0 Bft) N 0,00 h 0,000 mm 0,0 UV-I 0 W/m 6,6 C 7,3 C 0,6 km/h (0 Bft)
02.05.2014 04:00 7,4 C 96 % 1008,7 hPa 0,0 l/m 1,5 km/h (1 Bft) N-NW 0,00 h 0,000 mm 0,0 UV-I 0 W/m 6,8 C 7,4 C 3,1 km/h (1 Bft)
02.05.2014 05:00 7,1 C 96 % 1009,0 hPa 0,0 l/m 2,2 km/h (1 Bft) N-NW 0,00 h 0,000 mm 0,0 UV-I 0 W/m 6,5 C 7,1 C 4,1 km/h (1 Bft)
02.05.2014 06:00 7,1 C 96 % 1009,3 hPa 0,2 l/m 0,7 km/h (0 Bft) N 0,00 h 0,000 mm 0,0 UV-I 10 W/m 6,5 C 7,1 C 2,1 km/h (1 Bft)
02.05.2014 07:00 7,8 C 96 % 1009,4 hPa 0,2 l/m 1,3 km/h (1 Bft) W 0,45 h 0,000 mm 0,0 UV-I 43 W/m 7,2 C 7,8 C 2,3 km/h (1 Bft)
02.05.2014 08:00 9,0 C 95 % 1009,7 hPa 0,0 l/m 3,3 km/h (1 Bft) NW 1,00 h 0,025 mm 0,9 UV-I 188 W/m 8,3 C 9,0 C 4,8 km/h (1 Bft)
02.05.2014 09:00 11,3 C 90 % 1009,7 hPa 0,0 l/m 7,8 km/h (2 Bft) N 1,00 h 0,076 mm 1,3 UV-I 236 W/m 9,7 C 10,1 C 11,9 km/h (2 Bft)
02.05.2014 10:00 12,1 C 87 % 1010,2 hPa 0,0 l/m 6,1 km/h (2 Bft) N-NW 1,00 h 0,127 mm 1,8 UV-I 307 W/m 10,0 C 11,6 C 9,5 km/h (2 Bft)
02.05.2014 11:00 12,2 C 85 % 1010,7 hPa 0,2 l/m 6,8 km/h (2 Bft) N-NW 1,00 h 0,152 mm 1,0 UV-I 121 W/m 9,8 C 11,6 C 9,9 km/h (2 Bft)
02.05.2014 12:00 12,0 C 87 % 1011,0 hPa 0,2 l/m 3,0 km/h (1 Bft) N 1,00 h 0,076 mm 1,0 UV-I 123 W/m 10,0 C 12,0 C 5,2 km/h (1 Bft)
02.05.2014 13:00 12,7 C 88 % 1011,1 hPa 0,0 l/m 4,8 km/h (1 Bft) N 1,00 h 0,076 mm 1,4 UV-I 198 W/m 10,7 C 12,5 C 7,9 km/h (2 Bft)
02.05.2014 14:00 11,7 C 88 % 1011,2 hPa 0,2 l/m 12,1 km/h (2 Bft) N 1,00 h 0,102 mm 1,1 UV-I 141 W/m 9,8 C 8,6 C 17,5 km/h (3 Bft)
02.05.2014 15:00 11,8 C 86 % 1011,2 hPa 0,0 l/m 11,8 km/h (2 Bft) N 1,00 h 0,076 mm 1,7 UV-I 260 W/m 9,5 C 8,9 C 17,7 km/h (3 Bft)
02.05.2014 16:00 11,2 C 84 % 1011,6 hPa 0,0 l/m 12,5 km/h (3 Bft) N 1,00 h 0,152 mm 1,4 UV-I 254 W/m 8,5 C 7,8 C 18,5 km/h (3 Bft)
02.05.2014 17:00 8,9 C 86 % 1012,1 hPa 0,0 l/m 12,2 km/h (2 Bft) N-NW 0,68 h 0,152 mm 0,6 UV-I 70 W/m 6,8 C 5,3 C 18,4 km/h (3 Bft)
02.05.2014 18:00 7,3 C 88 % 1012,9 hPa 0,0 l/m 11,1 km/h (2 Bft) N-NW 0,00 h 0,051 mm 0,0 UV-I 32 W/m 5,5 C 4,1 C 17,5 km/h (3 Bft)
02.05.2014 19:00 6,5 C 88 % 1013,8 hPa 0,0 l/m 12,3 km/h (3 Bft) N 0,00 h 0,025 mm 0,0 UV-I 23 W/m 4,7 C 2,5 C 19,0 km/h (3 Bft)
02.05.2014 20:00 5,9 C 88 % 1014,8 hPa 0,0 l/m 10,1 km/h (2 Bft) N 0,00 h 0,025 mm 0,0 UV-I 13 W/m 4,0 C 3,0 C 16,2 km/h (3 Bft)
02.05.2014 21:00 5,4 C 88 % 1015,7 hPa 0,0 l/m 9,5 km/h (2 Bft) N 0,00 h 0,025 mm 0,0 UV-I 0 W/m 3,6 C 2,9 C 14,5 km/h (3 Bft)
02.05.2014 22:00 5,1 C 88 % 1016,2 hPa 0,0 l/m 7,5 km/h (2 Bft) N 0,00 h 0,028 mm 0,0 UV-I 0 W/m 3,2 C 3,9 C 12,4 km/h (3 Bft)
02.05.2014 23:00 4,7 C 88 % 1016,4 hPa 0,0 l/m 8,5 km/h (2 Bft) N 0,00 h 0,000 mm 0,0 UV-I 0 W/m 2,9 C 2,9 C 13,0 km/h (3 Bft)
03.05.2014 00:00 4,3 C 88 % 1016,7 hPa 0,0 l/m 8,9 km/h (2 Bft) N 0,00 h 0,025 mm 0,0 UV-I 0 W/m 2,4 C 2,1 C 13,9 km/h (3 Bft)
03.05.2014 01:00 4,1 C 88 % 1016,9 hPa 0,0 l/m 5,0 km/h (1 Bft) N 0,00 h 0,025 mm 0,0 UV-I 0 W/m 2,3 C 3,6 C 8,8 km/h (2 Bft)
03.05.2014 02:00 4,0 C 88 % 1016,7 hPa 0,0 l/m 7,4 km/h (2 Bft) N 0,00 h 0,000 mm 0,0 UV-I 0 W/m 2,2 C 2,7 C 11,2 km/h (2 Bft)
03.05.2014 03:00 4,0 C 88 % 1016,8 hPa 0,0 l/m 6,9 km/h (2 Bft) N 0,00 h 0,000 mm 0,0 UV-I 0 W/m 2,2 C 2,8 C 11,0 km/h (2 Bft)
03.05.2014 04:00 3,9 C 88 % 1017,1 hPa 0,0 l/m 6,8 km/h (2 Bft) N 0,00 h 0,000 mm 0,0 UV-I 0 W/m 2,1 C 3,0 C 10,7 km/h (2 Bft)
03.05.2014 05:00 3,9 C 88 % 1017,3 hPa 0,0 l/m 8,6 km/h (2 Bft) N 0,00 h 0,000 mm 0,0 UV-I 0 W/m 2,0 C 1,9 C 12,6 km/h (3 Bft)
03.05.2014 06:00 3,8 C 88 % 1017,6 hPa 0,0 l/m 9,5 km/h (2 Bft) N 0,00 h 0,000 mm 0,0 UV-I 7 W/m 2,0 C 1,2 C 14,9 km/h (3 Bft)
03.05.2014 07:00 3,9 C 88 % 1018,2 hPa 0,0 l/m 7,6 km/h (2 Bft) N 0,00 h 0,025 mm 0,0 UV-I 26 W/m 2,0 C 2,6 C 10,6 km/h (2 Bft)
03.05.2014 08:00 4,4 C 86 % 1018,5 hPa 0,0 l/m 7,6 km/h (2 Bft) N 0,53 h 0,025 mm 0,5 UV-I 61 W/m 2,2 C 3,0 C 12,2 km/h (2 Bft)
03.05.2014 09:00 5,3 C 83 % 1018,8 hPa 0,0 l/m 7,4 km/h (2 Bft) N 1,00 h 0,025 mm 0,9 UV-I 131 W/m 2,6 C 3,9 C 12,0 km/h (2 Bft)
03.05.2014 10:00 5,5 C 82 % 1019,2 hPa 0,0 l/m 11,2 km/h (2 Bft) N 1,00 h 0,076 mm 0,9 UV-I 116 W/m 2,6 C 2,0 C 17,4 km/h (3 Bft)
03.05.2014 11:00 5,8 C 81 % 1019,6 hPa 0,0 l/m 12,2 km/h (3 Bft) N-NO 1,00 h 0,076 mm 1,2 UV-I 142 W/m 2,7 C 1,7 C 19,5 km/h (3 Bft)
03.05.2014 12:00 6,3 C 78 % 1019,9 hPa 0,0 l/m 10,6 km/h (2 Bft) N-NO 1,00 h 0,076 mm 1,5 UV-I 175 W/m 2,9 C 3,3 C 16,6 km/h (3 Bft)
03.05.2014 13:00 6,4 C 78 % 1020,3 hPa 0,0 l/m 11,5 km/h (2 Bft) N 1,00 h 0,102 mm 1,2 UV-I 144 W/m 2,9 C 2,9 C 17,7 km/h (3 Bft)
03.05.2014 14:00 6,5 C 79 % 1020,8 hPa 0,0 l/m 11,5 km/h (2 Bft) N 1,00 h 0,076 mm 1,0 UV-I 116 W/m 3,1 C 2,9 C 17,4 km/h (3 Bft)
03.05.2014 15:00 6,6 C 79 % 1021,1 hPa 0,0 l/m 11,3 km/h (2 Bft) N-NO 1,00 h 0,076 mm 1,1 UV-I 147 W/m 3,3 C 3,2 C 16,6 km/h (3 Bft)
03.05.2014 16:00 6,5 C 80 % 1021,2 hPa 0,0 l/m 10,7 km/h (2 Bft) N 1,00 h 0,076 mm 0,8 UV-I 112 W/m 3,2 C 3,4 C 16,1 km/h (3 Bft)
03.05.2014 17:00 6,1 C 81 % 1021,4 hPa 0,0 l/m 8,4 km/h (2 Bft) N-NO 0,25 h 0,076 mm 0,6 UV-I 46 W/m 3,1 C 4,5 C 12,6 km/h (3 Bft)
03.05.2014 18:00 6,1 C 81 % 1021,4 hPa 0,0 l/m 5,1 km/h (1 Bft) N-NO 0,30 h 0,025 mm 0,6 UV-I 49 W/m 3,0 C 5,7 C 8,1 km/h (2 Bft)
03.05.2014 19:00 6,0 C 81 % 1021,8 hPa 0,0 l/m 4,2 km/h (1 Bft) N 0,00 h 0,025 mm 0,0 UV-I 24 W/m 3,0 C 6,0 C 6,6 km/h (2 Bft)
03.05.2014 20:00 5,7 C 83 % 1022,3 hPa 0,0 l/m 3,5 km/h (1 Bft) N-NO 0,00 h 0,025 mm 0,0 UV-I 8 W/m 3,0 C 5,7 C 5,4 km/h (1 Bft)
03.05.2014 21:00 5,4 C 83 % 1022,6 hPa 0,0 l/m 6,2 km/h (2 Bft) N 0,00 h 0,000 mm 0,0 UV-I 0 W/m 2,8 C 5,1 C 8,6 km/h (2 Bft)
03.05.2014 22:00 4,7 C 86 % 1022,9 hPa 0,0 l/m 2,4 km/h (1 Bft) N-NW 0,00 h 0,025 mm 0,0 UV-I 0 W/m 2,5 C 4,7 C 3,9 km/h (1 Bft)
03.05.2014 23:00 3,4 C 89 % 1023,2 hPa 0,0 l/m 0,6 km/h (0 Bft) N-NW 0,00 h 0,000 mm 0,0 UV-I 0 W/m 1,8 C 3,4 C 1,6 km/h (1 Bft)
04.05.2014 00:00 2,5 C 92 % 1023,2 hPa 0,0 l/m 0,0 km/h (0 Bft) N 0,00 h 0,000 mm 0,0 UV-I 0 W/m 1,3 C 2,5 C 0,1 km/h (0 Bft)
04.05.2014 01:00 1,7 C 93 % 1023,2 hPa 0,0 l/m 0,1 km/h (0 Bft) N-NW 0,00 h 0,000 mm 0,0 UV-I 0 W/m 0,7 C 1,7 C 0,5 km/h (0 Bft)
04.05.2014 02:00 0,6 C 94 % 1022,9 hPa 0,0 l/m 0,0 km/h (0 Bft) N 0,00 h 0,000 mm 0,0 UV-I 0 W/m -0,2 C 0,6 C 0,2 km/h (0 Bft)
04.05.2014 03:00 -0,0 C 95 % 1022,7 hPa 0,0 l/m 0,0 km/h (0 Bft) N 0,00 h 0,000 mm 0,0 UV-I 0 W/m -0,7 C -0,0 C 0,3 km/h (0 Bft)
04.05.2014 04:00 -0,8 C 95 % 1022,7 hPa 0,0 l/m 0,0 km/h (0 Bft) N 0,00 h 0,000 mm 0,0 UV-I 0 W/m -1,5 C -0,8 C 0,0 km/h (0 Bft)
04.05.2014 05:00 -1,2 C 95 % 1022,8 hPa 0,0 l/m 0,0 km/h (0 Bft) N-NW 0,00 h 0,000 mm 0,0 UV-I 7 W/m -1,9 C -1,2 C 0,2 km/h (0 Bft)
04.05.2014 06:00 -1,3 C 95 % 1023,1 hPa 0,0 l/m 0,0 km/h (0 Bft) N 0,00 h 0,000 mm 0,0 UV-I 20 W/m -2,0 C -1,3 C 0,0 km/h (0 Bft)
04.05.2014 07:00 0,3 C 94 % 1023,3 hPa 0,0 l/m 0,0 km/h (0 Bft) N-NW 0,85 h 0,000 mm 0,7 UV-I 184 W/m -0,6 C 0,3 C 0,2 km/h (0 Bft)
04.05.2014 08:00 4,2 C 85 % 1023,4 hPa 0,0 l/m 3,1 km/h (1 Bft) N-NW 1,00 h 0,051 mm 1,3 UV-I 399 W/m 1,8 C 4,1 C 5,3 km/h (1 Bft)
04.05.2014 09:00 7,5 C 71 % 1023,3 hPa 0,0 l/m 4,9 km/h (1 Bft) NW 1,00 h 0,152 mm 2,5 UV-I 587 W/m 2,6 C 7,2 C 7,9 km/h (2 Bft)
04.05.2014 10:00 9,6 C 61 % 1023,2 hPa 0,0 l/m 7,5 km/h (2 Bft) N 1,00 h 0,254 mm 3,3 UV-I 639 W/m 2,3 C 8,3 C 11,9 km/h (2 Bft)
04.05.2014 11:00 9,9 C 55 % 1022,9 hPa 0,0 l/m 8,4 km/h (2 Bft) N-NW 1,00 h 0,305 mm 2,7 UV-I 409 W/m 1,3 C 8,3 C 12,7 km/h (3 Bft)
04.05.2014 12:00 9,9 C 57 % 1022,6 hPa 0,0 l/m 7,1 km/h (2 Bft) N-NW 1,00 h 0,229 mm 2,6 UV-I 320 W/m 1,7 C 8,9 C 11,1 km/h (2 Bft)
04.05.2014 13:00 11,3 C 52 % 1022,0 hPa 0,0 l/m 6,2 km/h (2 Bft) NW 1,00 h 0,178 mm 4,7 UV-I 627 W/m 1,8 C 10,6 C 9,9 km/h (2 Bft)
04.05.2014 14:00 11,5 C 50 % 1021,6 hPa 0,0 l/m 9,5 km/h (2 Bft) N-NW 1,00 h 0,330 mm 3,1 UV-I 332 W/m 1,4 C 9,4 C 14,7 km/h (3 Bft)
04.05.2014 15:00 11,7 C 50 % 1021,1 hPa 0,0 l/m 9,3 km/h (2 Bft) N-NW 1,00 h 0,229 mm 2,9 UV-I 329 W/m 1,6 C 9,8 C 14,1 km/h (3 Bft)
04.05.2014 16:00 12,1 C 48 % 1021,0 hPa 0,0 l/m 9,1 km/h (2 Bft) N 1,00 h 0,229 mm 2,3 UV-I 403 W/m 1,5 C 10,4 C 14,1 km/h (3 Bft)
04.05.2014 17:00 12,6 C 46 % 1020,7 hPa 0,0 l/m 8,1 km/h (2 Bft) N 1,00 h 0,254 mm 1,6 UV-I 364 W/m 1,3 C 11,4 C 12,2 km/h (2 Bft)
04.05.2014 18:00 11,7 C 49 % 1020,5 hPa 0,0 l/m 6,3 km/h (2 Bft) NW 1,00 h 0,229 mm 0,7 UV-I 87 W/m 1,3 C 11,1 C 9,7 km/h (2 Bft)
04.05.2014 19:00 10,6 C 54 % 1020,2 hPa 0,0 l/m 2,7 km/h (1 Bft) N-NW 0,03 h 0,076 mm 0,0 UV-I 35 W/m 1,7 C 10,6 C 4,8 km/h (1 Bft)
04.05.2014 20:00 8,9 C 63 % 1020,4 hPa 0,0 l/m 0,9 km/h (0 Bft) NO 0,00 h 0,025 mm 0,0 UV-I 11 W/m 2,1 C 8,9 C 2,3 km/h (1 Bft)
04.05.2014 21:00 6,8 C 74 % 1020,8 hPa 0,0 l/m 0,1 km/h (0 Bft) O-NO 0,00 h 0,000 mm 0,0 UV-I 0 W/m 2,5 C 6,8 C 0,7 km/h (0 Bft)
04.05.2014 22:00 4,9 C 83 % 1021,0 hPa 0,0 l/m 0,2 km/h (0 Bft) O-NO 0,00 h 0,025 mm 0,0 UV-I 0 W/m 2,3 C 4,9 C 0,8 km/h (0 Bft)
04.05.2014 23:00 3,5 C 87 % 1021,1 hPa 0,0 l/m 0,6 km/h (0 Bft) O-NO 0,00 h 0,000 mm 0,0 UV-I 0 W/m 1,6 C 3,5 C 1,7 km/h (1 Bft)
Min-Datum _ 04.05.14 30.04.14 28.04.14 - 28.04.14 - - - - - 04.05.14 03.05.14 28.04.14
_ Min-Zeit 06:16 15:38 03:26 - 00:00 - - - - - 06:17 06:08 00:00
Minimum _ -1,5 C 36 % 1006,5 hPa - 0,0 km/h (0 Bft) - - - - - -2,2 C -2,9 C 0,0 km/h (0 Bft)
Max-Datum _ 30.04.14 29.04.14 04.05.14 28.04.14 02.05.14 - 04.05.14 29.04.14 01.05.14 04.05.14 30.04.14 30.04.14 03.05.14
_ Max-Zeit 15:29 07:26 07:24 16:36 15:15 - 07:31 15:00 13:13 13:24 09:52 15:31 11:04
Maximum _ 21,0 C 98 % 1023,4 hPa 0,6 l/m 20,9 km/h
N (4 Bft)
- 0,10 h 0,508 mm 6,7 UV-I 1188 W/m 13,2 C 21,0 C 32,2 km/h
N-NO (5 Bft)
Durchschnitt _ 10,2 C 82 % 1012,7 hPa #3,6 l/m 4,0 km/h (1 Bft) N #73:55 h #14,037 mm 2,0 UV-I 218 W/m 6,9 C 9,6 C 6,5 km/h (2 Bft)